createdAt,value
2022-11-04T00:00:15.403Z,99833.53
2022-11-04T00:03:19.791Z,99837.94
2022-11-04T00:06:24.021Z,99829.91
2022-11-04T00:09:31.307Z,99831.19
2022-11-04T00:12:34.537Z,99828.75
2022-11-04T00:15:56.147Z,99834.03
2022-11-04T00:19:01.869Z,99831.19
2022-11-04T00:22:23.197Z,99830.66
2022-11-04T00:25:45.847Z,99828.28
2022-11-04T00:28:53.258Z,99835.06
2022-11-04T00:32:14.557Z,99833.56
2022-11-04T00:35:19.045Z,99827.53
2022-11-04T00:38:23.558Z,99835.28
2022-11-04T00:41:30.545Z,99826.25
2022-11-04T00:44:34.868Z,99826.00
2022-11-04T00:47:38.936Z,99830.06
2022-11-04T00:50:44.267Z,99836.47
2022-11-04T00:53:48.301Z,99837.38
2022-11-04T00:56:54.457Z,99836.84
2022-11-04T00:59:58.668Z,99837.22
2022-11-04T01:03:02.789Z,99840.13
2022-11-04T01:06:07.660Z,99827.94
2022-11-04T01:09:14.656Z,99820.81
2022-11-04T01:12:20.187Z,99822.63
2022-11-04T01:15:24.419Z,99832.34
2022-11-04T01:18:28.676Z,99819.06
2022-11-04T01:21:32.802Z,99824.63
2022-11-04T01:24:36.877Z,99823.72
2022-11-04T01:27:42.427Z,99819.13
2022-11-04T01:30:46.536Z,99819.16
2022-11-04T01:33:51.565Z,99826.03
2022-11-04T01:36:55.617Z,99817.53
2022-11-04T01:39:59.759Z,99823.16
2022-11-04T01:43:05.915Z,99810.72
2022-11-04T01:46:14.381Z,99818.69
2022-11-04T01:49:27.460Z,99817.69
2022-11-04T01:52:35.887Z,99815.38
2022-11-04T01:55:46.798Z,99802.50
2022-11-04T01:58:55.958Z,99811.09
2022-11-04T02:02:00.406Z,99803.19
2022-11-04T02:05:05.188Z,99804.72
2022-11-04T02:08:11.261Z,99798.94
2022-11-04T02:11:35.338Z,99790.81
2022-11-04T02:14:41.237Z,99778.88
2022-11-04T02:18:08.198Z,99777.00
2022-11-04T02:21:42.897Z,99777.19
2022-11-04T02:25:15.688Z,99778.75
2022-11-04T02:28:53.387Z,99773.78
2022-11-04T02:32:10.704Z,99770.19
2022-11-04T02:35:23.547Z,99772.56
2022-11-04T02:38:35.717Z,99767.44
2022-11-04T02:41:47.408Z,99768.88
2022-11-04T02:45:00.697Z,99768.66
2022-11-04T02:48:12.849Z,99770.00
2022-11-04T02:51:22.018Z,99777.09
2022-11-04T02:54:30.157Z,99774.75
2022-11-04T02:57:39.217Z,99770.66
2022-11-04T03:00:45.876Z,99769.44
2022-11-04T03:03:57.280Z,99770.16
2022-11-04T03:07:03.382Z,99760.00
2022-11-04T03:10:12.757Z,99759.00
2022-11-04T03:13:20.658Z,99758.00
2022-11-04T03:16:29.807Z,99762.44
2022-11-04T03:19:42.317Z,99769.03
2022-11-04T03:22:46.771Z,99764.06
2022-11-04T03:25:54.527Z,99770.59
2022-11-04T03:29:11.317Z,99768.06
2022-11-04T03:32:24.127Z,99771.19
2022-11-04T03:35:30.958Z,99768.47
2022-11-04T03:38:35.317Z,99778.44
2022-11-04T03:41:45.357Z,99780.94
2022-11-04T03:44:50.844Z,99777.44
2022-11-04T03:47:55.748Z,99777.75
2022-11-04T03:51:01.842Z,99771.84
2022-11-04T03:54:07.327Z,99769.66
2022-11-04T03:57:39.098Z,99758.78
2022-11-04T04:00:51.105Z,99758.03
2022-11-04T04:03:59.618Z,99757.69
2022-11-04T04:07:13.386Z,99760.03
2022-11-04T04:10:38.537Z,99762.34
2022-11-04T04:13:48.007Z,99766.25
2022-11-04T04:16:56.148Z,99770.81
2022-11-04T04:20:03.508Z,99767.91
2022-11-04T04:23:26.685Z,99777.25
2022-11-04T04:26:50.857Z,99769.53
2022-11-04T04:29:55.727Z,99765.25
2022-11-04T04:33:03.319Z,99774.16
2022-11-04T04:36:11.668Z,99770.47
2022-11-04T04:39:39.889Z,99767.94
2022-11-04T04:43:07.413Z,99767.16
2022-11-04T04:46:12.857Z,99769.38
2022-11-04T04:49:17.064Z,99763.56
2022-11-04T04:52:22.527Z,99770.75
2022-11-04T04:55:28.017Z,99776.28
2022-11-04T04:58:32.217Z,99772.81
2022-11-04T05:01:36.507Z,99770.84
2022-11-04T05:04:40.987Z,99771.47
2022-11-04T05:07:45.298Z,99770.69
2022-11-04T05:10:50.998Z,99778.06
2022-11-04T05:13:55.256Z,99769.53
2022-11-04T05:16:59.548Z,99771.50
2022-11-04T05:20:03.868Z,99775.75
2022-11-04T05:23:08.828Z,99781.81
2022-11-04T05:26:15.056Z,99786.94
2022-11-04T05:29:19.481Z,99777.59
2022-11-04T05:32:23.667Z,99778.78
2022-11-04T05:35:27.947Z,99792.03
2022-11-04T05:38:32.172Z,99795.38
2022-11-04T05:41:37.955Z,99798.44
2022-11-04T05:44:42.248Z,99802.72
2022-11-04T05:47:46.450Z,99811.09
2022-11-04T05:50:50.557Z,99805.84
2022-11-04T05:53:55.080Z,99816.53
2022-11-04T05:57:00.825Z,99814.22
2022-11-04T06:00:06.057Z,99811.75
2022-11-04T06:03:13.585Z,99808.31
2022-11-04T06:06:20.696Z,99818.91
2022-11-04T06:09:39.322Z,99820.09
2022-11-04T06:12:45.118Z,99832.06
2022-11-04T06:15:49.387Z,99826.22
2022-11-04T06:18:54.169Z,99832.78
2022-11-04T06:21:58.677Z,99829.81
2022-11-04T06:25:02.769Z,99843.75
2022-11-04T06:28:08.833Z,99848.22
2022-11-04T06:31:15.958Z,99843.56
2022-11-04T06:34:20.536Z,99840.47
2022-11-04T06:37:24.786Z,99846.72
2022-11-04T06:40:28.897Z,99842.97
2022-11-04T06:43:34.618Z,99844.06
2022-11-04T06:46:40.177Z,99845.44
2022-11-04T06:49:44.437Z,99852.56
2022-11-04T06:52:48.756Z,99841.16
2022-11-04T06:55:53.587Z,99846.97
2022-11-04T06:58:59.462Z,99850.56
2022-11-04T07:02:03.762Z,99848.22
2022-11-04T07:05:09.247Z,99856.94
2022-11-04T07:08:13.467Z,99851.69
2022-11-04T07:11:18.279Z,99847.28
2022-11-04T07:14:23.878Z,99846.88
2022-11-04T07:17:28.098Z,99845.81
2022-11-04T07:20:32.409Z,99835.56
2022-11-04T07:23:37.119Z,99839.78
2022-11-04T07:26:42.743Z,99836.69
2022-11-04T07:29:48.357Z,99816.88
2022-11-04T07:32:52.558Z,99818.19
2022-11-04T07:35:58.601Z,99811.53
2022-11-04T07:39:02.780Z,99803.19
2022-11-04T07:42:09.757Z,99804.09
2022-11-04T07:45:15.500Z,99805.19
2022-11-04T07:48:19.767Z,99803.34
2022-11-04T07:51:24.087Z,99798.78
2022-11-04T07:54:29.147Z,99796.97
2022-11-04T07:57:33.437Z,99794.13
2022-11-04T08:00:39.187Z,99791.06
2022-11-04T08:03:43.394Z,99782.88
2022-11-04T08:06:47.583Z,99782.84
2022-11-04T08:09:53.327Z,99776.84
2022-11-04T08:12:57.538Z,99768.44
2022-11-04T08:16:07.287Z,99767.38
2022-11-04T08:19:11.768Z,99768.19
2022-11-04T08:22:16.078Z,99766.09
2022-11-04T08:25:20.233Z,99759.25
2022-11-04T08:28:25.112Z,99757.56
2022-11-04T08:31:34.091Z,99754.06
2022-11-04T08:34:38.926Z,99746.28
2022-11-04T08:37:43.178Z,99747.50
2022-11-04T08:40:47.747Z,99743.97
2022-11-04T08:43:52.068Z,99744.97
2022-11-04T08:46:58.037Z,99733.84
2022-11-04T08:50:02.321Z,99735.59
2022-11-04T08:53:07.798Z,99727.03
2022-11-04T08:56:14.278Z,99720.97
2022-11-04T08:59:18.579Z,99713.28
2022-11-04T09:02:24.338Z,99716.28
2022-11-04T09:05:29.209Z,99705.13
2022-11-04T09:08:33.568Z,99711.69
2022-11-04T09:11:41.877Z,99703.19
2022-11-04T09:14:46.088Z,99697.31
2022-11-04T09:17:51.747Z,99697.25
2022-11-04T09:20:56.089Z,99694.19
2022-11-04T09:24:00.719Z,99695.84
2022-11-04T09:27:06.456Z,99680.34
2022-11-04T09:30:12.141Z,99671.94
2022-11-04T09:33:18.268Z,99677.09
2022-11-04T09:36:22.537Z,99672.59
2022-11-04T09:39:29.508Z,99672.06
2022-11-04T09:42:49.417Z,99666.78
2022-11-04T09:45:53.979Z,99656.47
2022-11-04T09:49:03.179Z,99659.13
2022-11-04T09:52:15.058Z,99653.16
2022-11-04T09:55:26.508Z,99649.72
2022-11-04T09:58:34.929Z,99634.13
2022-11-04T10:01:44.242Z,99634.19
2022-11-04T10:05:00.650Z,99621.00
2022-11-04T10:08:26.398Z,99617.56
2022-11-04T10:11:41.088Z,99612.50
2022-11-04T10:14:58.438Z,99609.38
2022-11-04T10:18:19.417Z,99598.06
2022-11-04T10:21:37.726Z,99591.59
2022-11-04T10:24:44.847Z,99577.69
2022-11-04T10:27:50.025Z,99576.66
2022-11-04T10:30:54.528Z,99580.28
2022-11-04T10:34:04.828Z,99568.63
2022-11-04T10:37:13.597Z,99560.78
2022-11-04T10:40:25.642Z,99556.41
2022-11-04T10:43:35.926Z,99543.59
2022-11-04T10:46:49.737Z,99540.56
2022-11-04T10:50:34.115Z,99530.59
2022-11-04T10:53:39.751Z,99527.47
2022-11-04T10:56:47.500Z,99518.97
2022-11-04T10:59:55.937Z,99519.38
2022-11-04T11:03:00.277Z,99517.72
2022-11-04T11:06:17.156Z,99503.66
2022-11-04T11:09:29.720Z,99504.13
2022-11-04T11:12:56.313Z,99499.28
2022-11-04T11:16:10.147Z,99495.59
2022-11-04T11:19:23.037Z,99490.97
2022-11-04T11:22:37.768Z,99487.81
2022-11-04T11:25:51.717Z,99476.00
2022-11-04T11:29:04.780Z,99479.84
2022-11-04T11:32:25.518Z,99462.91
2022-11-04T11:35:34.577Z,99463.97
2022-11-04T11:38:39.148Z,99458.41
2022-11-04T11:41:56.719Z,99460.78
2022-11-04T11:45:05.498Z,99453.66
2022-11-04T11:48:32.058Z,99449.00
2022-11-04T11:51:38.887Z,99446.94
2022-11-04T11:54:45.378Z,99444.38
2022-11-04T12:01:35.825Z,99427.22
2022-11-04T12:11:59.819Z,99417.50
2022-11-04T12:15:19.152Z,99400.34
2022-11-04T12:18:43.320Z,99403.75
2022-11-04T12:21:56.718Z,99394.94
2022-11-04T12:25:11.468Z,99390.72
2022-11-04T12:28:29.007Z,99395.19
2022-11-04T12:31:44.465Z,99388.09
2022-11-04T12:35:02.938Z,99381.97
2022-11-04T12:38:32.826Z,99373.34
2022-11-04T12:42:20.491Z,99369.25
2022-11-04T12:45:27.498Z,99356.16
2022-11-04T12:48:56.857Z,99362.66
2022-11-04T12:52:11.497Z,99351.59
2022-11-04T12:55:33.186Z,99346.84
2022-11-04T12:59:11.808Z,99341.63
2022-11-04T13:02:24.162Z,99356.41
2022-11-04T13:05:43.494Z,99350.63
2022-11-04T13:08:52.329Z,99352.53
2022-11-04T13:11:59.897Z,99350.41
2022-11-04T13:15:06.990Z,99353.06
2022-11-04T13:18:17.031Z,99340.53
2022-11-04T13:21:27.847Z,99336.03
2022-11-04T13:24:36.300Z,99333.25
2022-11-04T13:27:45.347Z,99325.03
2022-11-04T13:30:57.045Z,99328.25
2022-11-04T13:34:08.847Z,99332.56
2022-11-04T13:37:25.110Z,99335.41
2022-11-04T13:40:35.928Z,99329.31
2022-11-04T13:43:50.653Z,99334.41
2022-11-04T13:46:57.518Z,99332.50
2022-11-04T13:50:01.697Z,99333.44
2022-11-04T13:53:10.999Z,99329.81
2022-11-04T13:56:33.775Z,99324.94
2022-11-04T13:59:39.101Z,99320.09
2022-11-04T14:02:45.073Z,99332.06
2022-11-04T14:06:04.905Z,99336.97
2022-11-04T14:09:48.345Z,99331.09
2022-11-04T14:12:53.959Z,99329.38
2022-11-04T14:16:04.028Z,99327.34
2022-11-04T14:19:47.508Z,99310.91
2022-11-04T14:22:54.879Z,99314.13
2022-11-04T14:26:04.297Z,99318.34
2022-11-04T14:29:17.515Z,99314.50
2022-11-04T14:32:27.969Z,99318.63
2022-11-04T14:35:33.378Z,99308.66
2022-11-04T14:38:37.555Z,99313.22
2022-11-04T14:41:54.797Z,99310.75
2022-11-04T14:45:01.778Z,99312.16
2022-11-04T14:48:16.296Z,99308.72
2022-11-04T14:51:27.037Z,99308.75
2022-11-04T14:54:34.858Z,99313.03
2022-11-04T14:57:40.850Z,99318.50
2022-11-04T15:00:57.351Z,99310.38
2022-11-04T15:04:12.709Z,99302.44
2022-11-04T15:07:27.376Z,99307.16
2022-11-04T15:10:31.737Z,99317.75
2022-11-04T15:13:37.658Z,99310.03
2022-11-04T15:16:46.659Z,99316.75
2022-11-04T15:19:53.417Z,99313.31
2022-11-04T15:22:59.030Z,99300.25
2022-11-04T15:26:05.147Z,99301.53
2022-11-04T15:29:12.519Z,99302.34
2022-11-04T15:32:19.818Z,99304.59
2022-11-04T15:35:24.579Z,99311.88
2022-11-04T15:38:30.298Z,99318.78
2022-11-04T15:41:53.648Z,99308.00
2022-11-04T15:44:58.278Z,99306.56
2022-11-04T15:48:29.377Z,99308.00
2022-11-04T15:51:39.426Z,99310.41
2022-11-04T15:54:46.659Z,99308.00
2022-11-04T15:57:52.119Z,99312.44
2022-11-04T16:00:58.111Z,99317.34
2022-11-04T16:04:07.803Z,99322.03
2022-11-04T16:07:26.848Z,99330.38
2022-11-04T16:10:33.789Z,99336.88
2022-11-04T16:13:37.946Z,99331.97
2022-11-04T16:16:49.967Z,99327.50
2022-11-04T16:19:57.748Z,99325.00
2022-11-04T16:23:04.280Z,99311.44
2022-11-04T16:26:09.318Z,99316.88
2022-11-04T16:29:19.861Z,99319.28
2022-11-04T16:32:28.717Z,99325.13
2022-11-04T16:35:34.747Z,99329.75
2022-11-04T16:38:39.388Z,99328.84
2022-11-04T16:41:44.210Z,99331.09
2022-11-04T16:44:50.958Z,99319.28
2022-11-04T16:47:56.289Z,99327.34
2022-11-04T16:54:06.438Z,99310.31
2022-11-04T16:57:14.921Z,99321.84
2022-11-04T17:00:21.528Z,99330.75
2022-11-04T17:03:26.089Z,99329.59
2022-11-04T17:06:31.926Z,99334.50
2022-11-04T17:09:36.207Z,99327.13
2022-11-04T17:12:40.407Z,99325.69
2022-11-04T17:15:44.979Z,99335.59
2022-11-04T17:18:49.167Z,99331.38
2022-11-04T17:21:54.957Z,99331.13
2022-11-04T17:24:59.197Z,99333.78
2022-11-04T17:28:03.578Z,99325.75
2022-11-04T17:31:08.277Z,99319.34
2022-11-04T17:34:15.785Z,99322.56
2022-11-04T17:37:21.538Z,99322.78
2022-11-04T17:40:26.019Z,99325.19
2022-11-04T17:43:47.207Z,99321.56
2022-11-04T17:46:51.697Z,99336.53
2022-11-04T17:49:55.937Z,99326.72
2022-11-04T17:53:01.882Z,99337.81
2022-11-04T17:56:15.527Z,99337.16
2022-11-04T17:59:19.786Z,99333.59
2022-11-04T18:02:24.219Z,99335.22
2022-11-04T18:05:28.480Z,99330.34
2022-11-04T18:08:34.552Z,99333.84
2022-11-04T18:11:56.437Z,99332.56
2022-11-04T18:15:00.671Z,99335.47
2022-11-04T18:18:05.081Z,99330.16
2022-11-04T18:21:11.221Z,99335.94
2022-11-04T18:24:17.382Z,99342.09
2022-11-04T18:27:21.890Z,99337.72
2022-11-04T18:30:26.461Z,99333.28
2022-11-04T18:33:30.656Z,99326.94
2022-11-04T18:36:36.309Z,99324.94
2022-11-04T18:39:42.903Z,99331.91
2022-11-04T18:42:47.322Z,99338.19
2022-11-04T18:45:55.292Z,99326.53
2022-11-04T18:48:59.731Z,99342.66
2022-11-04T18:52:03.910Z,99338.25
2022-11-04T18:55:11.151Z,99337.69
2022-11-04T18:58:16.751Z,99332.59
2022-11-04T19:01:24.585Z,99328.78
2022-11-04T19:04:29.292Z,99332.00
2022-11-04T19:07:33.691Z,99323.72
2022-11-04T19:10:59.755Z,99319.19
2022-11-04T19:14:09.715Z,99320.59
2022-11-04T19:17:14.092Z,99319.03
2022-11-04T19:20:18.950Z,99331.28
2022-11-04T19:23:23.482Z,99323.50
2022-11-04T19:26:31.625Z,99321.53
2022-11-04T19:29:35.821Z,99322.66
2022-11-04T19:32:40.081Z,99321.72
2022-11-04T19:35:46.500Z,99322.22
2022-11-04T19:38:54.304Z,99317.56
2022-11-04T19:42:17.351Z,99317.84
2022-11-04T19:45:21.731Z,99322.47
2022-11-04T19:48:25.881Z,99320.25
2022-11-04T19:51:32.115Z,99328.03
2022-11-04T19:54:39.151Z,99324.00
2022-11-04T19:57:47.781Z,99334.69
2022-11-04T20:00:52.180Z,99334.41
2022-11-04T20:03:57.002Z,99328.22
2022-11-04T20:07:04.751Z,99331.13
2022-11-04T20:10:10.011Z,99341.47
2022-11-04T20:13:38.510Z,99335.38
2022-11-04T20:16:45.681Z,99339.38
2022-11-04T20:19:50.841Z,99344.69
2022-11-04T20:22:55.191Z,99346.97
2022-11-04T20:26:06.753Z,99346.28
2022-11-04T20:29:13.341Z,99350.09
2022-11-04T20:32:17.542Z,99349.19
2022-11-04T20:35:22.373Z,99350.22
2022-11-04T20:38:26.851Z,99357.41
2022-11-04T20:41:31.931Z,99359.38
2022-11-04T20:44:37.804Z,99349.38
2022-11-04T20:47:42.110Z,99345.91
2022-11-04T20:50:46.381Z,99343.63
2022-11-04T20:53:56.282Z,99332.50
2022-11-04T20:57:03.152Z,99339.41
2022-11-04T21:00:10.511Z,99344.94
2022-11-04T21:03:14.831Z,99346.56
2022-11-04T21:06:20.352Z,99341.59
2022-11-04T21:09:26.310Z,99334.53
2022-11-04T21:12:30.681Z,99336.53
2022-11-04T21:15:42.890Z,99346.44
2022-11-04T21:18:47.239Z,99336.41
2022-11-04T21:21:51.918Z,99334.41
2022-11-04T21:24:56.155Z,99335.22
2022-11-04T21:28:00.562Z,99334.97
2022-11-04T21:31:12.554Z,99329.06
2022-11-04T21:34:17.049Z,99334.28
2022-11-04T21:37:21.526Z,99328.91
2022-11-04T21:40:25.766Z,99324.47
2022-11-04T21:43:30.995Z,99324.84
2022-11-04T21:46:38.467Z,99330.09
2022-11-04T21:49:42.745Z,99325.47
2022-11-04T21:52:48.275Z,99318.22
2022-11-04T21:55:53.316Z,99304.44
2022-11-04T21:58:58.518Z,99301.63
2022-11-04T22:02:04.520Z,99297.47
2022-11-04T22:05:09.817Z,99299.94
2022-11-04T22:08:21.348Z,99300.41
2022-11-04T22:11:27.945Z,99301.00
2022-11-04T22:14:32.426Z,99298.56
2022-11-04T22:17:40.474Z,99293.41
2022-11-04T22:20:44.846Z,99281.97
2022-11-04T22:23:49.166Z,99285.66
2022-11-04T22:26:53.345Z,99281.78
2022-11-04T22:29:59.686Z,99266.00
2022-11-04T22:33:05.305Z,99262.16
2022-11-04T22:36:11.075Z,99263.00
2022-11-04T22:39:17.030Z,99266.91
2022-11-04T22:42:21.406Z,99274.88
2022-11-04T22:45:25.626Z,99268.16
2022-11-04T22:48:31.286Z,99269.28
2022-11-04T22:51:35.605Z,99268.28
2022-11-04T22:54:39.965Z,99267.56
2022-11-04T22:57:44.296Z,99270.63
2022-11-04T23:00:55.332Z,99270.84
2022-11-04T23:04:01.289Z,99264.63
2022-11-04T23:07:05.692Z,99265.81
2022-11-04T23:10:27.532Z,99266.63
2022-11-04T23:13:49.351Z,99275.19
2022-11-04T23:17:13.970Z,99272.53
2022-11-04T23:20:21.542Z,99271.47
2022-11-04T23:23:42.803Z,99273.47
2022-11-04T23:26:48.511Z,99273.69
2022-11-04T23:30:09.691Z,99278.41
2022-11-04T23:33:16.177Z,99285.53
2022-11-04T23:36:38.531Z,99289.88
2022-11-04T23:39:44.411Z,99286.09
2022-11-04T23:42:48.559Z,99280.69
2022-11-04T23:46:26.350Z,99286.38
2022-11-04T23:49:48.000Z,99294.63
2022-11-04T23:53:11.087Z,99294.84
2022-11-04T23:56:32.972Z,99303.25
2022-11-04T23:59:54.722Z,99295.22
